sensor_id;sensor_type;location;lat;lon;timestamp;temperature;humidity
72936;DHT22;61085;48.804;9.228;2022-09-09T00:00:27;16.80;71.70
72936;DHT22;61085;48.804;9.228;2022-09-09T00:03:16;16.70;71.60
72936;DHT22;61085;48.804;9.228;2022-09-09T00:08:22;16.70;72.40
72936;DHT22;61085;48.804;9.228;2022-09-09T00:10:56;16.70;72.30
72936;DHT22;61085;48.804;9.228;2022-09-09T00:13:32;16.70;72.10
72936;DHT22;61085;48.804;9.228;2022-09-09T00:16:27;16.70;72.30
72936;DHT22;61085;48.804;9.228;2022-09-09T00:21:42;16.80;71.30
72936;DHT22;61085;48.804;9.228;2022-09-09T00:24:22;17.00;71.20
72936;DHT22;61085;48.804;9.228;2022-09-09T00:26:53;16.90;71.00
72936;DHT22;61085;48.804;9.228;2022-09-09T00:29:53;16.90;70.30
72936;DHT22;61085;48.804;9.228;2022-09-09T00:32:20;16.80;70.10
72936;DHT22;61085;48.804;9.228;2022-09-09T00:34:51;16.90;70.70
72936;DHT22;61085;48.804;9.228;2022-09-09T00:37:19;16.90;70.80
72936;DHT22;61085;48.804;9.228;2022-09-09T00:39:47;17.10;70.30
72936;DHT22;61085;48.804;9.228;2022-09-09T00:57:52;17.20;69.60
72936;DHT22;61085;48.804;9.228;2022-09-09T01:00:22;17.10;70.20
72936;DHT22;61085;48.804;9.228;2022-09-09T01:02:57;17.00;70.70
72936;DHT22;61085;48.804;9.228;2022-09-09T01:07:58;17.20;70.00
72936;DHT22;61085;48.804;9.228;2022-09-09T01:10:44;17.30;70.50
72936;DHT22;61085;48.804;9.228;2022-09-09T01:13:35;17.30;70.10
72936;DHT22;61085;48.804;9.228;2022-09-09T01:16:08;17.10;69.90
72936;DHT22;61085;48.804;9.228;2022-09-09T01:18:40;17.20;69.50
72936;DHT22;61085;48.804;9.228;2022-09-09T01:21:35;17.10;70.50
72936;DHT22;61085;48.804;9.228;2022-09-09T01:27:04;17.00;69.50
72936;DHT22;61085;48.804;9.228;2022-09-09T01:29:31;17.00;70.00
72936;DHT22;61085;48.804;9.228;2022-09-09T01:32:00;17.10;69.50
72936;DHT22;61085;48.804;9.228;2022-09-09T01:34:35;17.20;69.00
72936;DHT22;61085;48.804;9.228;2022-09-09T01:37:10;17.20;68.20
72936;DHT22;61085;48.804;9.228;2022-09-09T01:39:39;17.30;67.80
72936;DHT22;61085;48.804;9.228;2022-09-09T01:42:09;17.40;67.60
72936;DHT22;61085;48.804;9.228;2022-09-09T01:44:38;17.40;67.10
72936;DHT22;61085;48.804;9.228;2022-09-09T01:47:04;17.40;67.30
72936;DHT22;61085;48.804;9.228;2022-09-09T01:49:30;17.30;67.30
72936;DHT22;61085;48.804;9.228;2022-09-09T01:51:58;17.40;66.90
72936;DHT22;61085;48.804;9.228;2022-09-09T01:54:28;17.40;66.80
72936;DHT22;61085;48.804;9.228;2022-09-09T02:02:29;17.20;66.50
72936;DHT22;61085;48.804;9.228;2022-09-09T02:08:17;17.20;66.30
72936;DHT22;61085;48.804;9.228;2022-09-09T02:13:22;17.40;66.10
72936;DHT22;61085;48.804;9.228;2022-09-09T02:16:01;17.30;66.10
72936;DHT22;61085;48.804;9.228;2022-09-09T02:18:32;17.30;66.50
72936;DHT22;61085;48.804;9.228;2022-09-09T02:21:00;17.20;66.50
72936;DHT22;61085;48.804;9.228;2022-09-09T02:23:28;17.50;66.50
72936;DHT22;61085;48.804;9.228;2022-09-09T02:25:55;17.30;66.60
72936;DHT22;61085;48.804;9.228;2022-09-09T02:28:24;17.30;66.30
72936;DHT22;61085;48.804;9.228;2022-09-09T02:30:52;17.10;67.70
72936;DHT22;61085;48.804;9.228;2022-09-09T02:33:26;17.20;67.70
72936;DHT22;61085;48.804;9.228;2022-09-09T02:35:53;17.10;68.10
72936;DHT22;61085;48.804;9.228;2022-09-09T02:38:24;17.10;68.60
72936;DHT22;61085;48.804;9.228;2022-09-09T02:40:51;17.10;68.00
72936;DHT22;61085;48.804;9.228;2022-09-09T02:43:17;17.20;68.80
72936;DHT22;61085;48.804;9.228;2022-09-09T02:46:08;17.10;68.10
72936;DHT22;61085;48.804;9.228;2022-09-09T02:49:10;17.00;68.00
72936;DHT22;61085;48.804;9.228;2022-09-09T02:54:29;17.00;68.20
72936;DHT22;61085;48.804;9.228;2022-09-09T02:59:39;17.00;68.10
72936;DHT22;61085;48.804;9.228;2022-09-09T03:02:05;17.00;68.30
72936;DHT22;61085;48.804;9.228;2022-09-09T03:04:31;17.10;68.50
72936;DHT22;61085;48.804;9.228;2022-09-09T03:06:58;16.90;68.80
72936;DHT22;61085;48.804;9.228;2022-09-09T03:09:23;17.00;68.20
72936;DHT22;61085;48.804;9.228;2022-09-09T03:11:49;17.00;68.00
72936;DHT22;61085;48.804;9.228;2022-09-09T03:14:15;16.90;68.00
72936;DHT22;61085;48.804;9.228;2022-09-09T03:16:41;16.90;67.80
72936;DHT22;61085;48.804;9.228;2022-09-09T03:19:08;16.90;68.30
72936;DHT22;61085;48.804;9.228;2022-09-09T03:21:34;17.10;67.30
72936;DHT22;61085;48.804;9.228;2022-09-09T03:24:01;17.10;68.40
72936;DHT22;61085;48.804;9.228;2022-09-09T03:26:29;17.10;68.60
72936;DHT22;61085;48.804;9.228;2022-09-09T03:28:55;17.00;69.00
72936;DHT22;61085;48.804;9.228;2022-09-09T03:31:21;17.00;69.60
72936;DHT22;61085;48.804;9.228;2022-09-09T03:33:47;17.00;69.50
72936;DHT22;61085;48.804;9.228;2022-09-09T03:36:14;17.00;70.10
72936;DHT22;61085;48.804;9.228;2022-09-09T03:38:40;16.80;70.40
72936;DHT22;61085;48.804;9.228;2022-09-09T03:41:06;16.90;70.60
72936;DHT22;61085;48.804;9.228;2022-09-09T03:43:33;16.90;70.00
72936;DHT22;61085;48.804;9.228;2022-09-09T03:45:59;16.70;71.00
72936;DHT22;61085;48.804;9.228;2022-09-09T03:48:25;16.90;71.20
72936;DHT22;61085;48.804;9.228;2022-09-09T03:50:53;16.70;70.80
72936;DHT22;61085;48.804;9.228;2022-09-09T03:53:21;16.60;71.20
72936;DHT22;61085;48.804;9.228;2022-09-09T03:55:49;16.70;71.50
72936;DHT22;61085;48.804;9.228;2022-09-09T03:58:16;16.70;71.60
72936;DHT22;61085;48.804;9.228;2022-09-09T04:00:52;16.70;70.90
72936;DHT22;61085;48.804;9.228;2022-09-09T04:03:18;16.70;70.90
72936;DHT22;61085;48.804;9.228;2022-09-09T04:05:44;16.50;71.90
72936;DHT22;61085;48.804;9.228;2022-09-09T04:08:09;16.40;72.10
72936;DHT22;61085;48.804;9.228;2022-09-09T04:10:35;16.20;72.50
72936;DHT22;61085;48.804;9.228;2022-09-09T04:13:05;16.10;72.80
72936;DHT22;61085;48.804;9.228;2022-09-09T04:15:31;16.20;72.30
72936;DHT22;61085;48.804;9.228;2022-09-09T04:17:56;16.20;72.50
72936;DHT22;61085;48.804;9.228;2022-09-09T04:20:23;16.10;72.80
72936;DHT22;61085;48.804;9.228;2022-09-09T04:22:48;16.00;72.90
72936;DHT22;61085;48.804;9.228;2022-09-09T04:25:14;16.00;72.80
72936;DHT22;61085;48.804;9.228;2022-09-09T04:27:40;15.90;73.20
72936;DHT22;61085;48.804;9.228;2022-09-09T04:30:06;15.80;73.60
72936;DHT22;61085;48.804;9.228;2022-09-09T04:32:35;15.80;74.00
72936;DHT22;61085;48.804;9.228;2022-09-09T04:35:02;16.00;73.80
72936;DHT22;61085;48.804;9.228;2022-09-09T04:37:28;16.00;74.00
72936;DHT22;61085;48.804;9.228;2022-09-09T04:39:54;16.00;73.20
72936;DHT22;61085;48.804;9.228;2022-09-09T04:42:19;16.10;73.00
72936;DHT22;61085;48.804;9.228;2022-09-09T04:44:45;16.20;71.80
72936;DHT22;61085;48.804;9.228;2022-09-09T04:47:11;16.20;72.00
72936;DHT22;61085;48.804;9.228;2022-09-09T04:49:37;16.20;71.60
72936;DHT22;61085;48.804;9.228;2022-09-09T04:52:04;16.30;71.70
72936;DHT22;61085;48.804;9.228;2022-09-09T04:54:29;16.40;71.00
72936;DHT22;61085;48.804;9.228;2022-09-09T04:56:55;16.30;71.20
72936;DHT22;61085;48.804;9.228;2022-09-09T04:59:21;16.40;72.30
72936;DHT22;61085;48.804;9.228;2022-09-09T05:01:48;16.50;72.50
72936;DHT22;61085;48.804;9.228;2022-09-09T05:04:13;16.50;70.90
72936;DHT22;61085;48.804;9.228;2022-09-09T05:06:42;16.60;71.10
72936;DHT22;61085;48.804;9.228;2022-09-09T05:09:08;16.50;70.40
72936;DHT22;61085;48.804;9.228;2022-09-09T05:11:34;16.50;70.60
72936;DHT22;61085;48.804;9.228;2022-09-09T05:14:02;16.50;70.10
72936;DHT22;61085;48.804;9.228;2022-09-09T05:16:28;16.40;70.80
72936;DHT22;61085;48.804;9.228;2022-09-09T05:18:54;16.40;70.70
72936;DHT22;61085;48.804;9.228;2022-09-09T05:21:21;16.60;70.20
72936;DHT22;61085;48.804;9.228;2022-09-09T05:23:48;16.80;69.60
72936;DHT22;61085;48.804;9.228;2022-09-09T05:26:16;17.10;69.60
72936;DHT22;61085;48.804;9.228;2022-09-09T05:28:41;17.00;68.50
72936;DHT22;61085;48.804;9.228;2022-09-09T05:31:09;17.00;68.40
72936;DHT22;61085;48.804;9.228;2022-09-09T05:33:37;17.20;67.80
72936;DHT22;61085;48.804;9.228;2022-09-09T05:36:07;17.80;65.60
72936;DHT22;61085;48.804;9.228;2022-09-09T05:38:34;17.70;65.00
72936;DHT22;61085;48.804;9.228;2022-09-09T05:41:01;18.40;63.10
72936;DHT22;61085;48.804;9.228;2022-09-09T05:43:28;19.50;58.50
72936;DHT22;61085;48.804;9.228;2022-09-09T05:46:01;19.90;57.50
72936;DHT22;61085;48.804;9.228;2022-09-09T05:48:28;19.70;57.50
72936;DHT22;61085;48.804;9.228;2022-09-09T05:50:55;19.00;58.40
72936;DHT22;61085;48.804;9.228;2022-09-09T05:53:20;18.80;59.60
72936;DHT22;61085;48.804;9.228;2022-09-09T05:55:46;18.40;61.10
72936;DHT22;61085;48.804;9.228;2022-09-09T05:58:13;18.20;63.60
72936;DHT22;61085;48.804;9.228;2022-09-09T06:00:40;18.00;62.80
72936;DHT22;61085;48.804;9.228;2022-09-09T06:03:06;17.80;63.80
72936;DHT22;61085;48.804;9.228;2022-09-09T06:05:32;17.70;64.60
72936;DHT22;61085;48.804;9.228;2022-09-09T06:07:58;17.60;65.50
72936;DHT22;61085;48.804;9.228;2022-09-09T06:10:23;17.70;65.50
72936;DHT22;61085;48.804;9.228;2022-09-09T06:12:52;17.80;65.10
72936;DHT22;61085;48.804;9.228;2022-09-09T06:15:18;17.60;65.20
72936;DHT22;61085;48.804;9.228;2022-09-09T06:17:43;17.40;65.70
72936;DHT22;61085;48.804;9.228;2022-09-09T06:20:10;17.40;66.50
72936;DHT22;61085;48.804;9.228;2022-09-09T06:22:36;17.30;67.00
72936;DHT22;61085;48.804;9.228;2022-09-09T06:25:01;17.20;67.20
72936;DHT22;61085;48.804;9.228;2022-09-09T06:27:27;17.20;67.60
72936;DHT22;61085;48.804;9.228;2022-09-09T06:29:54;17.30;68.00
72936;DHT22;61085;48.804;9.228;2022-09-09T06:32:19;17.40;67.60
72936;DHT22;61085;48.804;9.228;2022-09-09T06:34:45;17.40;67.30
72936;DHT22;61085;48.804;9.228;2022-09-09T06:37:10;17.50;67.20
72936;DHT22;61085;48.804;9.228;2022-09-09T06:39:36;17.70;66.70
72936;DHT22;61085;48.804;9.228;2022-09-09T06:42:02;17.70;66.20
72936;DHT22;61085;48.804;9.228;2022-09-09T06:44:27;17.80;66.20
72936;DHT22;61085;48.804;9.228;2022-09-09T06:46:53;18.00;65.70
72936;DHT22;61085;48.804;9.228;2022-09-09T06:49:19;18.00;65.20
72936;DHT22;61085;48.804;9.228;2022-09-09T06:51:44;18.20;65.30
72936;DHT22;61085;48.804;9.228;2022-09-09T06:54:11;18.00;65.50
72936;DHT22;61085;48.804;9.228;2022-09-09T06:56:38;18.10;64.90
72936;DHT22;61085;48.804;9.228;2022-09-09T06:59:08;18.20;65.60
72936;DHT22;61085;48.804;9.228;2022-09-09T07:01:36;18.10;65.00
72936;DHT22;61085;48.804;9.228;2022-09-09T07:04:04;18.30;64.70
72936;DHT22;61085;48.804;9.228;2022-09-09T07:06:32;18.30;64.60
72936;DHT22;61085;48.804;9.228;2022-09-09T07:09:03;18.30;64.10
72936;DHT22;61085;48.804;9.228;2022-09-09T07:11:33;18.40;64.40
72936;DHT22;61085;48.804;9.228;2022-09-09T07:14:00;18.30;64.30
72936;DHT22;61085;48.804;9.228;2022-09-09T07:16:26;18.40;64.20
72936;DHT22;61085;48.804;9.228;2022-09-09T07:18:53;18.50;64.70
72936;DHT22;61085;48.804;9.228;2022-09-09T07:21:20;18.80;64.40
72936;DHT22;61085;48.804;9.228;2022-09-09T07:23:46;18.90;63.90
72936;DHT22;61085;48.804;9.228;2022-09-09T07:26:15;19.00;62.50
72936;DHT22;61085;48.804;9.228;2022-09-09T07:28:41;19.00;62.10
72936;DHT22;61085;48.804;9.228;2022-09-09T07:31:13;19.40;61.60
72936;DHT22;61085;48.804;9.228;2022-09-09T07:33:40;19.70;61.50
72936;DHT22;61085;48.804;9.228;2022-09-09T07:36:09;19.80;61.70
72936;DHT22;61085;48.804;9.228;2022-09-09T07:38:55;20.00;60.00
72936;DHT22;61085;48.804;9.228;2022-09-09T07:41:32;20.10;59.70
72936;DHT22;61085;48.804;9.228;2022-09-09T07:44:03;20.30;59.60
72936;DHT22;61085;48.804;9.228;2022-09-09T07:46:28;20.60;58.90
72936;DHT22;61085;48.804;9.228;2022-09-09T07:48:56;21.00;57.30
72936;DHT22;61085;48.804;9.228;2022-09-09T07:51:36;21.50;56.20
72936;DHT22;61085;48.804;9.228;2022-09-09T07:54:05;21.70;55.80
72936;DHT22;61085;48.804;9.228;2022-09-09T07:56:32;21.80;55.50
72936;DHT22;61085;48.804;9.228;2022-09-09T07:58:58;22.00;54.60
72936;DHT22;61085;48.804;9.228;2022-09-09T08:04:04;22.00;54.40
72936;DHT22;61085;48.804;9.228;2022-09-09T08:06:35;22.50;54.10
72936;DHT22;61085;48.804;9.228;2022-09-09T08:09:01;23.10;52.10
72936;DHT22;61085;48.804;9.228;2022-09-09T08:11:28;23.30;51.00
72936;DHT22;61085;48.804;9.228;2022-09-09T08:13:55;23.80;50.80
72936;DHT22;61085;48.804;9.228;2022-09-09T08:16:24;24.20;48.70
72936;DHT22;61085;48.804;9.228;2022-09-09T08:18:51;24.30;48.80
72936;DHT22;61085;48.804;9.228;2022-09-09T08:21:23;24.00;48.40
72936;DHT22;61085;48.804;9.228;2022-09-09T08:23:51;24.20;47.90
72936;DHT22;61085;48.804;9.228;2022-09-09T08:26:28;24.20;47.60
72936;DHT22;61085;48.804;9.228;2022-09-09T08:28:56;24.10;47.60
72936;DHT22;61085;48.804;9.228;2022-09-09T08:31:26;23.50;49.60
72936;DHT22;61085;48.804;9.228;2022-09-09T08:33:53;23.40;50.40
72936;DHT22;61085;48.804;9.228;2022-09-09T08:36:22;23.60;50.00
72936;DHT22;61085;48.804;9.228;2022-09-09T08:38:50;23.80;48.90
72936;DHT22;61085;48.804;9.228;2022-09-09T08:49:34;25.30;46.50
72936;DHT22;61085;48.804;9.228;2022-09-09T08:51:55;25.60;45.30
72936;DHT22;61085;48.804;9.228;2022-09-09T08:54:22;26.10;45.20
72936;DHT22;61085;48.804;9.228;2022-09-09T08:56:48;26.40;44.20
72936;DHT22;61085;48.804;9.228;2022-09-09T08:59:17;26.20;43.10
72936;DHT22;61085;48.804;9.228;2022-09-09T09:10:54;26.20;42.70
72936;DHT22;61085;48.804;9.228;2022-09-09T09:13:22;26.30;42.10
72936;DHT22;61085;48.804;9.228;2022-09-09T09:15:57;25.40;41.60
72936;DHT22;61085;48.804;9.228;2022-09-09T09:18:23;24.70;42.80
72936;DHT22;61085;48.804;9.228;2022-09-09T09:20:54;24.40;44.20
72936;DHT22;61085;48.804;9.228;2022-09-09T09:23:25;24.30;43.70
72936;DHT22;61085;48.804;9.228;2022-09-09T09:25:55;24.20;45.10
72936;DHT22;61085;48.804;9.228;2022-09-09T09:28:25;24.00;45.20
72936;DHT22;61085;48.804;9.228;2022-09-09T09:30:59;23.80;43.90
72936;DHT22;61085;48.804;9.228;2022-09-09T09:36:07;23.40;45.90
72936;DHT22;61085;48.804;9.228;2022-09-09T09:38:34;23.20;46.60
72936;DHT22;61085;48.804;9.228;2022-09-09T09:41:00;22.80;47.90
72936;DHT22;61085;48.804;9.228;2022-09-09T09:43:31;22.60;48.80
72936;DHT22;61085;48.804;9.228;2022-09-09T09:45:58;22.10;50.50
72936;DHT22;61085;48.804;9.228;2022-09-09T09:48:26;21.90;50.50
72936;DHT22;61085;48.804;9.228;2022-09-09T09:51:01;22.20;50.30
72936;DHT22;61085;48.804;9.228;2022-09-09T09:53:32;22.50;49.80
72936;DHT22;61085;48.804;9.228;2022-09-09T09:56:08;23.00;49.10
72936;DHT22;61085;48.804;9.228;2022-09-09T10:01:29;23.60;48.40
72936;DHT22;61085;48.804;9.228;2022-09-09T10:04:14;23.80;46.90
72936;DHT22;61085;48.804;9.228;2022-09-09T10:06:41;23.80;45.30
72936;DHT22;61085;48.804;9.228;2022-09-09T10:09:28;23.80;45.30
72936;DHT22;61085;48.804;9.228;2022-09-09T10:15:06;23.90;45.20
72936;DHT22;61085;48.804;9.228;2022-09-09T10:18:07;24.00;45.70
72936;DHT22;61085;48.804;9.228;2022-09-09T10:26:26;24.10;44.60
72936;DHT22;61085;48.804;9.228;2022-09-09T10:37:41;24.00;47.10
72936;DHT22;61085;48.804;9.228;2022-09-09T10:41:06;23.90;46.50
72936;DHT22;61085;48.804;9.228;2022-09-09T10:45:55;24.20;46.40
72936;DHT22;61085;48.804;9.228;2022-09-09T10:56:48;24.40;46.10
72936;DHT22;61085;48.804;9.228;2022-09-09T10:59:22;24.30;45.80
72936;DHT22;61085;48.804;9.228;2022-09-09T11:04:27;24.10;46.80
72936;DHT22;61085;48.804;9.228;2022-09-09T11:06:58;23.90;47.20
72936;DHT22;61085;48.804;9.228;2022-09-09T11:09:32;24.30;46.70
72936;DHT22;61085;48.804;9.228;2022-09-09T11:12:00;24.40;47.50
72936;DHT22;61085;48.804;9.228;2022-09-09T11:14:42;24.70;46.80
72936;DHT22;61085;48.804;9.228;2022-09-09T11:17:15;24.50;45.80
72936;DHT22;61085;48.804;9.228;2022-09-09T11:19:45;24.30;45.70
72936;DHT22;61085;48.804;9.228;2022-09-09T11:24:48;23.90;43.60
72936;DHT22;61085;48.804;9.228;2022-09-09T11:27:27;23.50;44.20
72936;DHT22;61085;48.804;9.228;2022-09-09T11:36:16;22.40;46.40
72936;DHT22;61085;48.804;9.228;2022-09-09T11:38:50;22.20;46.30
72936;DHT22;61085;48.804;9.228;2022-09-09T11:41:17;22.00;46.70
72936;DHT22;61085;48.804;9.228;2022-09-09T11:43:51;21.90;47.10
72936;DHT22;61085;48.804;9.228;2022-09-09T11:46:19;21.80;47.50
72936;DHT22;61085;48.804;9.228;2022-09-09T11:48:58;21.70;48.10
72936;DHT22;61085;48.804;9.228;2022-09-09T11:51:28;21.80;48.30
72936;DHT22;61085;48.804;9.228;2022-09-09T11:53:57;21.90;47.90
72936;DHT22;61085;48.804;9.228;2022-09-09T11:56:42;22.00;47.70
72936;DHT22;61085;48.804;9.228;2022-09-09T11:59:23;21.80;48.10
72936;DHT22;61085;48.804;9.228;2022-09-09T12:04:38;21.90;48.10
72936;DHT22;61085;48.804;9.228;2022-09-09T12:09:52;22.50;47.60
72936;DHT22;61085;48.804;9.228;2022-09-09T12:12:48;22.50;46.00
72936;DHT22;61085;48.804;9.228;2022-09-09T12:15:24;22.90;46.30
72936;DHT22;61085;48.804;9.228;2022-09-09T12:17:53;23.00;44.50
72936;DHT22;61085;48.804;9.228;2022-09-09T12:20:35;23.10;44.50
72936;DHT22;61085;48.804;9.228;2022-09-09T12:25:58;23.10;43.70
72936;DHT22;61085;48.804;9.228;2022-09-09T12:33:37;23.40;43.40
72936;DHT22;61085;48.804;9.228;2022-09-09T12:36:11;23.70;42.50
72936;DHT22;61085;48.804;9.228;2022-09-09T12:38:40;23.40;41.70
72936;DHT22;61085;48.804;9.228;2022-09-09T12:41:15;23.50;42.40
72936;DHT22;61085;48.804;9.228;2022-09-09T12:43:44;23.80;42.20
72936;DHT22;61085;48.804;9.228;2022-09-09T12:46:38;23.90;42.00
72936;DHT22;61085;48.804;9.228;2022-09-09T12:49:03;23.70;40.50
72936;DHT22;61085;48.804;9.228;2022-09-09T12:51:31;23.60;41.20
72936;DHT22;61085;48.804;9.228;2022-09-09T12:53:59;23.40;41.40
72936;DHT22;61085;48.804;9.228;2022-09-09T12:56:32;23.30;40.80
72936;DHT22;61085;48.804;9.228;2022-09-09T12:58:58;23.20;41.70
72936;DHT22;61085;48.804;9.228;2022-09-09T13:01:32;23.20;41.30
72936;DHT22;61085;48.804;9.228;2022-09-09T13:04:00;23.40;41.80
72936;DHT22;61085;48.804;9.228;2022-09-09T13:06:29;23.50;41.80
72936;DHT22;61085;48.804;9.228;2022-09-09T13:09:00;23.80;42.50
72936;DHT22;61085;48.804;9.228;2022-09-09T13:11:44;23.70;41.90
72936;DHT22;61085;48.804;9.228;2022-09-09T13:14:18;24.00;41.40
72936;DHT22;61085;48.804;9.228;2022-09-09T13:16:56;24.00;40.50
72936;DHT22;61085;48.804;9.228;2022-09-09T13:19:22;24.10;40.90
72936;DHT22;61085;48.804;9.228;2022-09-09T13:21:51;24.00;40.80
72936;DHT22;61085;48.804;9.228;2022-09-09T13:24:29;23.80;41.30
72936;DHT22;61085;48.804;9.228;2022-09-09T13:26:59;23.60;41.40
72936;DHT22;61085;48.804;9.228;2022-09-09T13:29:28;23.60;42.40
72936;DHT22;61085;48.804;9.228;2022-09-09T13:31:53;23.70;43.10
72936;DHT22;61085;48.804;9.228;2022-09-09T13:34:28;23.70;42.00
72936;DHT22;61085;48.804;9.228;2022-09-09T13:37:17;23.80;41.80
72936;DHT22;61085;48.804;9.228;2022-09-09T13:39:51;23.90;42.90
72936;DHT22;61085;48.804;9.228;2022-09-09T13:42:27;24.20;42.30
72936;DHT22;61085;48.804;9.228;2022-09-09T13:44:54;24.10;40.40
72936;DHT22;61085;48.804;9.228;2022-09-09T13:47:35;24.30;41.00
72936;DHT22;61085;48.804;9.228;2022-09-09T13:50:20;24.20;41.10
72936;DHT22;61085;48.804;9.228;2022-09-09T13:52:47;24.00;41.40
72936;DHT22;61085;48.804;9.228;2022-09-09T13:55:14;23.90;41.40
72936;DHT22;61085;48.804;9.228;2022-09-09T13:57:50;23.70;41.00
72936;DHT22;61085;48.804;9.228;2022-09-09T14:00:16;23.60;41.60
72936;DHT22;61085;48.804;9.228;2022-09-09T14:02:42;23.40;40.60
72936;DHT22;61085;48.804;9.228;2022-09-09T14:05:09;23.60;41.00
72936;DHT22;61085;48.804;9.228;2022-09-09T14:07:36;23.70;40.70
72936;DHT22;61085;48.804;9.228;2022-09-09T14:10:04;23.80;40.80
72936;DHT22;61085;48.804;9.228;2022-09-09T14:12:30;24.00;39.60
72936;DHT22;61085;48.804;9.228;2022-09-09T14:14:55;24.10;39.50
72936;DHT22;61085;48.804;9.228;2022-09-09T14:17:21;24.20;39.80
72936;DHT22;61085;48.804;9.228;2022-09-09T14:19:47;24.10;39.50
72936;DHT22;61085;48.804;9.228;2022-09-09T14:22:13;24.00;39.00
72936;DHT22;61085;48.804;9.228;2022-09-09T14:24:39;24.10;40.00
72936;DHT22;61085;48.804;9.228;2022-09-09T14:27:04;24.00;38.30
72936;DHT22;61085;48.804;9.228;2022-09-09T14:29:30;24.20;39.20
72936;DHT22;61085;48.804;9.228;2022-09-09T14:31:56;24.40;38.40
72936;DHT22;61085;48.804;9.228;2022-09-09T14:34:22;24.30;38.20
72936;DHT22;61085;48.804;9.228;2022-09-09T14:36:47;24.20;38.50
72936;DHT22;61085;48.804;9.228;2022-09-09T14:39:13;24.00;38.70
72936;DHT22;61085;48.804;9.228;2022-09-09T14:41:39;24.10;38.60
72936;DHT22;61085;48.804;9.228;2022-09-09T14:44:04;23.90;38.90
72936;DHT22;61085;48.804;9.228;2022-09-09T14:46:30;24.00;39.30
72936;DHT22;61085;48.804;9.228;2022-09-09T14:48:56;24.00;39.00
72936;DHT22;61085;48.804;9.228;2022-09-09T14:51:24;23.90;39.30
72936;DHT22;61085;48.804;9.228;2022-09-09T14:53:55;24.00;38.90
72936;DHT22;61085;48.804;9.228;2022-09-09T14:56:27;24.00;39.00
72936;DHT22;61085;48.804;9.228;2022-09-09T14:58:54;23.90;38.60
72936;DHT22;61085;48.804;9.228;2022-09-09T15:01:20;23.90;39.10
72936;DHT22;61085;48.804;9.228;2022-09-09T15:03:56;24.00;39.50
72936;DHT22;61085;48.804;9.228;2022-09-09T15:06:24;24.00;39.20
72936;DHT22;61085;48.804;9.228;2022-09-09T15:08:51;24.10;39.40
72936;DHT22;61085;48.804;9.228;2022-09-09T15:11:17;24.10;38.60
72936;DHT22;61085;48.804;9.228;2022-09-09T15:13:44;24.20;38.10
72936;DHT22;61085;48.804;9.228;2022-09-09T15:16:17;24.10;37.90
72936;DHT22;61085;48.804;9.228;2022-09-09T15:18:44;24.20;38.40
72936;DHT22;61085;48.804;9.228;2022-09-09T15:21:15;24.00;38.40
72936;DHT22;61085;48.804;9.228;2022-09-09T15:23:42;23.90;38.40
72936;DHT22;61085;48.804;9.228;2022-09-09T15:26:08;23.60;38.30
72936;DHT22;61085;48.804;9.228;2022-09-09T15:28:36;23.40;39.00
72936;DHT22;61085;48.804;9.228;2022-09-09T15:31:09;23.30;39.10
72936;DHT22;61085;48.804;9.228;2022-09-09T15:33:35;23.30;39.80
72936;DHT22;61085;48.804;9.228;2022-09-09T15:36:24;23.30;40.10
72936;DHT22;61085;48.804;9.228;2022-09-09T15:38:50;23.30;39.40
72936;DHT22;61085;48.804;9.228;2022-09-09T15:41:18;23.10;39.50
72936;DHT22;61085;48.804;9.228;2022-09-09T15:43:51;23.20;40.30
72936;DHT22;61085;48.804;9.228;2022-09-09T15:48:43;23.20;40.70
72936;DHT22;61085;48.804;9.228;2022-09-09T15:51:14;23.10;40.30
72936;DHT22;61085;48.804;9.228;2022-09-09T15:53:39;23.10;41.30
72936;DHT22;61085;48.804;9.228;2022-09-09T15:56:06;23.20;41.40
72936;DHT22;61085;48.804;9.228;2022-09-09T15:58:33;23.00;41.80
72936;DHT22;61085;48.804;9.228;2022-09-09T16:01:09;22.80;41.70
72936;DHT22;61085;48.804;9.228;2022-09-09T16:03:37;22.60;41.50
72936;DHT22;61085;48.804;9.228;2022-09-09T16:06:04;22.50;42.70
72936;DHT22;61085;48.804;9.228;2022-09-09T16:08:38;22.40;42.50
72936;DHT22;61085;48.804;9.228;2022-09-09T16:11:09;22.50;42.80
72936;DHT22;61085;48.804;9.228;2022-09-09T16:13:39;22.60;43.60
72936;DHT22;61085;48.804;9.228;2022-09-09T16:16:05;22.40;42.60
72936;DHT22;61085;48.804;9.228;2022-09-09T16:18:39;22.40;42.80
72936;DHT22;61085;48.804;9.228;2022-09-09T16:21:06;22.30;42.20
72936;DHT22;61085;48.804;9.228;2022-09-09T16:23:36;22.30;42.50
72936;DHT22;61085;48.804;9.228;2022-09-09T16:26:02;22.30;42.80
72936;DHT22;61085;48.804;9.228;2022-09-09T16:28:29;22.50;43.00
72936;DHT22;61085;48.804;9.228;2022-09-09T16:30:55;22.30;42.80
72936;DHT22;61085;48.804;9.228;2022-09-09T16:33:20;22.30;42.60
72936;DHT22;61085;48.804;9.228;2022-09-09T16:35:47;22.20;42.40
72936;DHT22;61085;48.804;9.228;2022-09-09T16:38:14;22.20;43.30
72936;DHT22;61085;48.804;9.228;2022-09-09T16:40:40;22.10;43.70
72936;DHT22;61085;48.804;9.228;2022-09-09T16:43:07;22.00;44.20
72936;DHT22;61085;48.804;9.228;2022-09-09T16:45:32;21.80;44.60
72936;DHT22;61085;48.804;9.228;2022-09-09T16:47:59;21.50;45.20
72936;DHT22;61085;48.804;9.228;2022-09-09T16:50:26;21.50;45.60
72936;DHT22;61085;48.804;9.228;2022-09-09T16:52:52;21.40;45.80
72936;DHT22;61085;48.804;9.228;2022-09-09T16:55:19;21.30;46.30
72936;DHT22;61085;48.804;9.228;2022-09-09T16:57:47;21.20;46.00
72936;DHT22;61085;48.804;9.228;2022-09-09T17:00:16;21.10;46.40
72936;DHT22;61085;48.804;9.228;2022-09-09T17:02:43;21.20;46.40
72936;DHT22;61085;48.804;9.228;2022-09-09T17:05:10;21.10;46.70
72936;DHT22;61085;48.804;9.228;2022-09-09T17:07:37;21.00;47.60
72936;DHT22;61085;48.804;9.228;2022-09-09T17:10:04;20.90;47.80
72936;DHT22;61085;48.804;9.228;2022-09-09T17:12:31;20.80;48.10
72936;DHT22;61085;48.804;9.228;2022-09-09T17:14:56;20.80;48.20
72936;DHT22;61085;48.804;9.228;2022-09-09T17:17:24;20.70;47.90
72936;DHT22;61085;48.804;9.228;2022-09-09T17:19:49;20.70;48.20
72936;DHT22;61085;48.804;9.228;2022-09-09T17:22:15;20.60;47.50
72936;DHT22;61085;48.804;9.228;2022-09-09T17:24:41;20.50;47.30
72936;DHT22;61085;48.804;9.228;2022-09-09T17:27:07;20.50;48.10
72936;DHT22;61085;48.804;9.228;2022-09-09T17:29:32;20.50;48.50
72936;DHT22;61085;48.804;9.228;2022-09-09T17:32:01;20.30;48.80
72936;DHT22;61085;48.804;9.228;2022-09-09T17:34:27;20.30;48.80
72936;DHT22;61085;48.804;9.228;2022-09-09T17:36:53;20.20;49.40
72936;DHT22;61085;48.804;9.228;2022-09-09T17:39:18;20.20;49.50
72936;DHT22;61085;48.804;9.228;2022-09-09T17:41:44;20.10;50.10
72936;DHT22;61085;48.804;9.228;2022-09-09T17:44:10;20.10;50.50
72936;DHT22;61085;48.804;9.228;2022-09-09T17:46:39;20.10;50.90
72936;DHT22;61085;48.804;9.228;2022-09-09T17:49:10;20.10;50.70